sensor_id;sensor_type;location;lat;lon;timestamp;pressure;altitude;pressure_sealevel;temperature;humidity
55010;BME280;40903;51.638;7.528;2023-04-02T00:02:43;100356.22;;;6.71;100.00
55010;BME280;40903;51.638;7.528;2023-04-02T00:08:05;100361.91;;;6.65;100.00
55010;BME280;40903;51.638;7.528;2023-04-02T00:13:18;100369.78;;;6.51;100.00
55010;BME280;40903;51.638;7.528;2023-04-02T00:15:46;100382.53;;;6.46;100.00
55010;BME280;40903;51.638;7.528;2023-04-02T00:18:14;100377.66;;;6.43;100.00
55010;BME280;40903;51.638;7.528;2023-04-02T00:20:40;100397.66;;;6.37;100.00
55010;BME280;40903;51.638;7.528;2023-04-02T00:23:09;100391.72;;;6.35;100.00
55010;BME280;40903;51.638;7.528;2023-04-02T00:25:36;100388.47;;;6.33;100.00
55010;BME280;40903;51.638;7.528;2023-04-02T00:28:16;100401.47;;;6.31;100.00
55010;BME280;40903;51.638;7.528;2023-04-02T00:33:16;100409.59;;;6.26;100.00
55010;BME280;40903;51.638;7.528;2023-04-02T00:35:42;100407.69;;;6.21;100.00
55010;BME280;40903;51.638;7.528;2023-04-02T00:38:12;100409.56;;;6.21;100.00
55010;BME280;40903;51.638;7.528;2023-04-02T00:40:44;100434.22;;;6.19;100.00
55010;BME280;40903;51.638;7.528;2023-04-02T00:43:10;100427.44;;;6.17;100.00
55010;BME280;40903;51.638;7.528;2023-04-02T00:45:53;100429.06;;;6.18;100.00
55010;BME280;40903;51.638;7.528;2023-04-02T00:51:00;100450.19;;;6.21;100.00
55010;BME280;40903;51.638;7.528;2023-04-02T00:53:32;100448.00;;;6.13;100.00
55010;BME280;40903;51.638;7.528;2023-04-02T00:56:07;100454.50;;;6.17;100.00
55010;BME280;40903;51.638;7.528;2023-04-02T00:58:36;100461.00;;;6.16;100.00
55010;BME280;40903;51.638;7.528;2023-04-02T01:01:03;100466.13;;;6.12;100.00
55010;BME280;40903;51.638;7.528;2023-04-02T01:03:32;100475.06;;;6.08;100.00
55010;BME280;40903;51.638;7.528;2023-04-02T01:06:11;100477.50;;;6.04;100.00
55010;BME280;40903;51.638;7.528;2023-04-02T01:19:10;100509.13;;;5.94;100.00
55010;BME280;40903;51.638;7.528;2023-04-02T01:24:19;100510.19;;;5.93;100.00
55010;BME280;40903;51.638;7.528;2023-04-02T01:26:47;100518.31;;;5.93;100.00
55010;BME280;40903;51.638;7.528;2023-04-02T01:31:48;100527.50;;;5.92;100.00
55010;BME280;40903;51.638;7.528;2023-04-02T01:34:15;100524.00;;;5.91;100.00
55010;BME280;40903;51.638;7.528;2023-04-02T01:42:55;100543.97;;;5.85;100.00
55010;BME280;40903;51.638;7.528;2023-04-02T01:44:51;100544.72;;;5.76;100.00
55010;BME280;40903;51.638;7.528;2023-04-02T01:47:18;100551.72;;;5.72;100.00
55010;BME280;40903;51.638;7.528;2023-04-02T01:49:44;100554.97;;;5.69;100.00
55010;BME280;40903;51.638;7.528;2023-04-02T01:52:15;100565.25;;;5.67;100.00
55010;BME280;40903;51.638;7.528;2023-04-02T01:54:41;100569.28;;;5.65;100.00
55010;BME280;40903;51.638;7.528;2023-04-02T01:57:07;100574.38;;;5.61;100.00
55010;BME280;40903;51.638;7.528;2023-04-02T01:59:32;100582.25;;;5.63;100.00
55010;BME280;40903;51.638;7.528;2023-04-02T02:02:01;100590.09;;;5.64;100.00
55010;BME280;40903;51.638;7.528;2023-04-02T02:04:27;100579.28;;;5.64;100.00
55010;BME280;40903;51.638;7.528;2023-04-02T02:06:53;100593.31;;;5.61;100.00
55010;BME280;40903;51.638;7.528;2023-04-02T02:09:21;100602.78;;;5.59;100.00
55010;BME280;40903;51.638;7.528;2023-04-02T02:11:48;100605.72;;;5.57;100.00
55010;BME280;40903;51.638;7.528;2023-04-02T02:14:16;100611.13;;;5.57;100.00
55010;BME280;40903;51.638;7.528;2023-04-02T02:16:41;100611.13;;;5.57;100.00
55010;BME280;40903;51.638;7.528;2023-04-02T02:19:17;100619.81;;;5.59;100.00
55010;BME280;40903;51.638;7.528;2023-04-02T02:21:46;100619.81;;;5.59;100.00
55010;BME280;40903;51.638;7.528;2023-04-02T02:26:47;100631.69;;;5.58;100.00
55010;BME280;40903;51.638;7.528;2023-04-02T02:29:16;100635.72;;;5.56;100.00
55010;BME280;40903;51.638;7.528;2023-04-02T02:31:42;100636.78;;;5.50;100.00
55010;BME280;40903;51.638;7.528;2023-04-02T02:34:11;100634.63;;;5.52;100.00
55010;BME280;40903;51.638;7.528;2023-04-02T02:36:47;100638.16;;;5.52;100.00
55010;BME280;40903;51.638;7.528;2023-04-02T02:41:48;100656.75;;;5.44;100.00
55010;BME280;40903;51.638;7.528;2023-04-02T02:44:19;100660.25;;;5.44;100.00
55010;BME280;40903;51.638;7.528;2023-04-02T02:46:49;100665.63;;;5.39;100.00
55010;BME280;40903;51.638;7.528;2023-04-02T02:49:20;100681.84;;;5.39;100.00
55010;BME280;40903;51.638;7.528;2023-04-02T02:54:32;100683.38;;;5.30;100.00
55010;BME280;40903;51.638;7.528;2023-04-02T02:57:02;100695.22;;;5.24;100.00
55010;BME280;40903;51.638;7.528;2023-04-02T02:59:28;100698.72;;;5.25;100.00
55010;BME280;40903;51.638;7.528;2023-04-02T03:01:54;100699.75;;;5.19;100.00
55010;BME280;40903;51.638;7.528;2023-04-02T03:04:20;100712.16;;;5.15;100.00
55010;BME280;40903;51.638;7.528;2023-04-02T03:06:47;100713.25;;;5.14;100.00
55010;BME280;40903;51.638;7.528;2023-04-02T03:09:20;100710.75;;;5.07;100.00
55010;BME280;40903;51.638;7.528;2023-04-02T03:14:48;100719.34;;;5.04;100.00
55010;BME280;40903;51.638;7.528;2023-04-02T03:17:19;100726.28;;;4.95;100.00
55010;BME280;40903;51.638;7.528;2023-04-02T03:22:34;100732.75;;;4.94;100.00
55010;BME280;40903;51.638;7.528;2023-04-02T03:27:34;100746.25;;;4.94;100.00
55010;BME280;40903;51.638;7.528;2023-04-02T03:32:29;100764.53;;;4.87;100.00
55010;BME280;40903;51.638;7.528;2023-04-02T03:37:47;100782.81;;;4.80;100.00
55010;BME280;40903;51.638;7.528;2023-04-02T03:40:16;100777.59;;;4.74;100.00
55010;BME280;40903;51.638;7.528;2023-04-02T03:45:15;100783.19;;;4.67;100.00
55010;BME280;40903;51.638;7.528;2023-04-02T03:47:44;100792.41;;;4.71;100.00
55010;BME280;40903;51.638;7.528;2023-04-02T03:50:27;100804.00;;;4.67;100.00
55010;BME280;40903;51.638;7.528;2023-04-02T03:52:56;100807.59;;;4.56;100.00
55010;BME280;40903;51.638;7.528;2023-04-02T03:55:22;100810.31;;;4.56;100.00
55010;BME280;40903;51.638;7.528;2023-04-02T04:00:19;100823.81;;;4.56;100.00
55010;BME280;40903;51.638;7.528;2023-04-02T04:02:54;100828.38;;;4.55;100.00
55010;BME280;40903;51.638;7.528;2023-04-02T04:05:31;100836.75;;;4.54;100.00
55010;BME280;40903;51.638;7.528;2023-04-02T04:07:59;100836.41;;;4.50;100.00
55010;BME280;40903;51.638;7.528;2023-04-02T04:10:26;100851.78;;;4.50;100.00
55010;BME280;40903;51.638;7.528;2023-04-02T04:12:53;100856.63;;;4.48;100.00
55010;BME280;40903;51.638;7.528;2023-04-02T04:15:27;100865.88;;;4.52;100.00
55010;BME280;40903;51.638;7.528;2023-04-02T04:18:07;100866.63;;;4.47;100.00
55010;BME280;40903;51.638;7.528;2023-04-02T04:20:42;100873.31;;;4.45;100.00
55010;BME280;40903;51.638;7.528;2023-04-02T04:23:16;100884.84;;;4.40;100.00
55010;BME280;40903;51.638;7.528;2023-04-02T04:25:43;100883.03;;;4.46;100.00
55010;BME280;40903;51.638;7.528;2023-04-02T04:28:14;100882.72;;;4.42;100.00
55010;BME280;40903;51.638;7.528;2023-04-02T04:30:50;100893.28;;;4.44;100.00
55010;BME280;40903;51.638;7.528;2023-04-02T04:33:24;100891.41;;;4.44;100.00
55010;BME280;40903;51.638;7.528;2023-04-02T04:35:51;100895.19;;;4.43;100.00
55010;BME280;40903;51.638;7.528;2023-04-02T04:38:18;100909.25;;;4.45;100.00
55010;BME280;40903;51.638;7.528;2023-04-02T04:40:55;100911.25;;;4.38;100.00
55010;BME280;40903;51.638;7.528;2023-04-02T04:43:25;100918.56;;;4.38;100.00
55010;BME280;40903;51.638;7.528;2023-04-02T04:45:55;100914.47;;;4.35;100.00
55010;BME280;40903;51.638;7.528;2023-04-02T04:48:35;100928.34;;;4.27;100.00
55010;BME280;40903;51.638;7.528;2023-04-02T04:51:06;100933.75;;;4.27;100.00
55010;BME280;40903;51.638;7.528;2023-04-02T04:53:33;100948.22;;;4.21;100.00
55010;BME280;40903;51.638;7.528;2023-04-02T04:56:09;100949.94;;;4.27;100.00
55010;BME280;40903;51.638;7.528;2023-04-02T04:58:41;100958.44;;;4.19;100.00
55010;BME280;40903;51.638;7.528;2023-04-02T05:01:14;100962.78;;;4.20;100.00
55010;BME280;40903;51.638;7.528;2023-04-02T05:03:56;100970.81;;;4.15;100.00
55010;BME280;40903;51.638;7.528;2023-04-02T05:08:55;100981.03;;;4.13;100.00
55010;BME280;40903;51.638;7.528;2023-04-02T05:11:34;100987.72;;;4.11;100.00
55010;BME280;40903;51.638;7.528;2023-04-02T05:14:02;100994.75;;;4.12;100.00
55010;BME280;40903;51.638;7.528;2023-04-02T05:16:32;101001.44;;;4.09;100.00
55010;BME280;40903;51.638;7.528;2023-04-02T05:19:05;101004.03;;;4.04;100.00
55010;BME280;40903;51.638;7.528;2023-04-02T05:21:36;101011.06;;;4.05;100.00
55010;BME280;40903;51.638;7.528;2023-04-02T05:24:49;101023.41;;;4.01;100.00
55010;BME280;40903;51.638;7.528;2023-04-02T05:26:52;101020.22;;;4.04;100.00
55010;BME280;40903;51.638;7.528;2023-04-02T05:29:23;101030.78;;;4.06;100.00
55010;BME280;40903;51.638;7.528;2023-04-02T05:34:23;101035.84;;;4.02;100.00
55010;BME280;40903;51.638;7.528;2023-04-02T05:36:50;101055.22;;;3.99;100.00
55010;BME280;40903;51.638;7.528;2023-04-02T05:39:17;101042.78;;;3.98;100.00
55010;BME280;40903;51.638;7.528;2023-04-02T05:41:45;101056.84;;;4.00;100.00
55010;BME280;40903;51.638;7.528;2023-04-02T05:44:18;101068.09;;;3.97;100.00
55010;BME280;40903;51.638;7.528;2023-04-02T05:46:50;101070.09;;;4.02;100.00
55010;BME280;40903;51.638;7.528;2023-04-02T05:49:19;101078.44;;;4.00;100.00
55010;BME280;40903;51.638;7.528;2023-04-02T05:51:49;101081.94;;;4.01;100.00
55010;BME280;40903;51.638;7.528;2023-04-02T05:54:25;101084.28;;;3.97;100.00
55010;BME280;40903;51.638;7.528;2023-04-02T05:56:56;101089.56;;;3.92;100.00
55010;BME280;40903;51.638;7.528;2023-04-02T05:59:30;101096.63;;;3.93;100.00
55010;BME280;40903;51.638;7.528;2023-04-02T06:04:49;101105.06;;;3.97;100.00
55010;BME280;40903;51.638;7.528;2023-04-02T06:07:21;101116.66;;;3.97;100.00
55010;BME280;40903;51.638;7.528;2023-04-02T06:12:17;101122.97;;;4.03;100.00
55010;BME280;40903;51.638;7.528;2023-04-02T06:14:44;101130.63;;;3.94;100.00
55010;BME280;40903;51.638;7.528;2023-04-02T06:17:11;101130.13;;;3.97;100.00
55010;BME280;40903;51.638;7.528;2023-04-02T06:19:38;101144.09;;;3.94;100.00
55010;BME280;40903;51.638;7.528;2023-04-02T06:22:08;101142.59;;;3.98;100.00
55010;BME280;40903;51.638;7.528;2023-04-02T06:24:34;101150.09;;;3.96;100.00
55010;BME280;40903;51.638;7.528;2023-04-02T06:27:01;101156.91;;;3.99;100.00
55010;BME280;40903;51.638;7.528;2023-04-02T06:29:34;101161.94;;;3.95;100.00
55010;BME280;40903;51.638;7.528;2023-04-02T06:32:03;101166.97;;;4.03;100.00
55010;BME280;40903;51.638;7.528;2023-04-02T06:34:30;101186.44;;;4.05;100.00
55010;BME280;40903;51.638;7.528;2023-04-02T06:36:57;101187.28;;;4.06;100.00
55010;BME280;40903;51.638;7.528;2023-04-02T06:39:24;101185.16;;;4.08;100.00
55010;BME280;40903;51.638;7.528;2023-04-02T06:41:58;101195.47;;;4.11;100.00
55010;BME280;40903;51.638;7.528;2023-04-02T06:44:25;101201.69;;;4.11;100.00
55010;BME280;40903;51.638;7.528;2023-04-02T06:46:53;101212.03;;;4.14;100.00
55010;BME280;40903;51.638;7.528;2023-04-02T06:49:22;101206.50;;;4.09;100.00
55010;BME280;40903;51.638;7.528;2023-04-02T06:51:48;101207.56;;;4.08;100.00
55010;BME280;40903;51.638;7.528;2023-04-02T06:54:15;101221.88;;;4.09;100.00
55010;BME280;40903;51.638;7.528;2023-04-02T06:56:44;101219.41;;;4.07;100.00
55010;BME280;40903;51.638;7.528;2023-04-02T06:59:10;101228.44;;;4.13;100.00
55010;BME280;40903;51.638;7.528;2023-04-02T07:04:11;101241.00;;;4.07;100.00
55010;BME280;40903;51.638;7.528;2023-04-02T07:06:36;101247.44;;;4.18;100.00
55010;BME280;40903;51.638;7.528;2023-04-02T07:09:01;101252.84;;;4.18;100.00
55010;BME280;40903;51.638;7.528;2023-04-02T07:11:27;101253.91;;;4.28;100.00
55010;BME280;40903;51.638;7.528;2023-04-02T07:13:52;101258.94;;;4.25;100.00
55010;BME280;40903;51.638;7.528;2023-04-02T07:16:18;101274.91;;;4.26;100.00
55010;BME280;40903;51.638;7.528;2023-04-02T07:18:44;101275.38;;;4.23;100.00
55010;BME280;40903;51.638;7.528;2023-04-02T07:21:09;101273.84;;;4.27;100.00
55010;BME280;40903;51.638;7.528;2023-04-02T07:23:35;101281.72;;;4.29;100.00
55010;BME280;40903;51.638;7.528;2023-04-02T07:26:00;101287.69;;;4.19;100.00
55010;BME280;40903;51.638;7.528;2023-04-02T07:28:27;101294.25;;;4.23;100.00
55010;BME280;40903;51.638;7.528;2023-04-02T07:30:52;101302.00;;;4.20;100.00
55010;BME280;40903;51.638;7.528;2023-04-02T07:33:18;101303.53;;;4.16;100.00
55010;BME280;40903;51.638;7.528;2023-04-02T07:35:44;101304.69;;;4.20;100.00
55010;BME280;40903;51.638;7.528;2023-04-02T07:38:11;101304.69;;;4.20;100.00
55010;BME280;40903;51.638;7.528;2023-04-02T07:40:36;101310.94;;;4.20;100.00
55010;BME280;40903;51.638;7.528;2023-04-02T07:43:02;101326.53;;;4.18;100.00
55010;BME280;40903;51.638;7.528;2023-04-02T07:45:27;101331.47;;;4.21;100.00
55010;BME280;40903;51.638;7.528;2023-04-02T07:47:53;101334.06;;;4.28;100.00
55010;BME280;40903;51.638;7.528;2023-04-02T07:50:18;101333.84;;;4.29;100.00
55010;BME280;40903;51.638;7.528;2023-04-02T07:52:44;101337.69;;;4.33;100.00
55010;BME280;40903;51.638;7.528;2023-04-02T07:55:10;101343.78;;;4.40;100.00
55010;BME280;40903;51.638;7.528;2023-04-02T07:57:45;101345.00;;;4.44;100.00
55010;BME280;40903;51.638;7.528;2023-04-02T08:00:12;101357.44;;;4.45;100.00
55010;BME280;40903;51.638;7.528;2023-04-02T08:02:38;101357.53;;;4.50;100.00
55010;BME280;40903;51.638;7.528;2023-04-02T08:05:03;101358.50;;;4.44;100.00
55010;BME280;40903;51.638;7.528;2023-04-02T08:07:28;101368.66;;;4.42;100.00
55010;BME280;40903;51.638;7.528;2023-04-02T08:09:54;101383.13;;;4.48;100.00
55010;BME280;40903;51.638;7.528;2023-04-02T08:12:19;101384.75;;;4.49;100.00
55010;BME280;40903;51.638;7.528;2023-04-02T08:14:44;101387.25;;;4.50;100.00
55010;BME280;40903;51.638;7.528;2023-04-02T08:17:09;101399.47;;;4.53;100.00
55010;BME280;40903;51.638;7.528;2023-04-02T08:19:35;101402.97;;;4.53;100.00
55010;BME280;40903;51.638;7.528;2023-04-02T08:22:01;101389.25;;;4.55;100.00
55010;BME280;40903;51.638;7.528;2023-04-02T08:24:26;101403.91;;;4.59;100.00
55010;BME280;40903;51.638;7.528;2023-04-02T08:26:51;101413.19;;;4.63;100.00
55010;BME280;40903;51.638;7.528;2023-04-02T08:29:20;101412.25;;;4.69;100.00
55010;BME280;40903;51.638;7.528;2023-04-02T08:31:45;101416.59;;;4.81;100.00
55010;BME280;40903;51.638;7.528;2023-04-02T08:34:10;101424.94;;;4.80;100.00
55010;BME280;40903;51.638;7.528;2023-04-02T08:36:36;101424.00;;;4.86;100.00
55010;BME280;40903;51.638;7.528;2023-04-02T08:39:03;101426.31;;;4.94;100.00
55010;BME280;40903;51.638;7.528;2023-04-02T08:41:30;101430.81;;;5.00;100.00
55010;BME280;40903;51.638;7.528;2023-04-02T08:46:25;101449.25;;;4.91;98.89
55010;BME280;40903;51.638;7.528;2023-04-02T08:48:54;101454.88;;;4.90;100.00
55010;BME280;40903;51.638;7.528;2023-04-02T08:51:28;101455.16;;;4.88;100.00
55010;BME280;40903;51.638;7.528;2023-04-02T08:53:55;101453.03;;;4.90;100.00
55010;BME280;40903;51.638;7.528;2023-04-02T08:56:29;101469.56;;;4.94;100.00
55010;BME280;40903;51.638;7.528;2023-04-02T08:59:00;101488.00;;;4.85;100.00
55010;BME280;40903;51.638;7.528;2023-04-02T09:04:22;101483.56;;;4.79;99.29
55010;BME280;40903;51.638;7.528;2023-04-02T09:06:50;101478.75;;;4.81;100.00
55010;BME280;40903;51.638;7.528;2023-04-02T09:09:16;101497.06;;;4.79;100.00
55010;BME280;40903;51.638;7.528;2023-04-02T09:14:20;101497.19;;;4.84;100.00
55010;BME280;40903;51.638;7.528;2023-04-02T09:16:49;101498.13;;;4.78;100.00
55010;BME280;40903;51.638;7.528;2023-04-02T09:19:17;101512.00;;;4.93;100.00
55010;BME280;40903;51.638;7.528;2023-04-02T09:21:50;101506.47;;;5.00;100.00
55010;BME280;40903;51.638;7.528;2023-04-02T09:24:18;101509.88;;;5.07;100.00
55010;BME280;40903;51.638;7.528;2023-04-02T09:26:43;101516.22;;;5.12;99.16
55010;BME280;40903;51.638;7.528;2023-04-02T09:31:37;101521.28;;;5.20;98.01
55010;BME280;40903;51.638;7.528;2023-04-02T09:36:47;101534.19;;;5.41;99.44
55010;BME280;40903;51.638;7.528;2023-04-02T09:39:19;101538.66;;;5.47;96.88
55010;BME280;40903;51.638;7.528;2023-04-02T09:41:46;101534.69;;;5.38;96.01
55010;BME280;40903;51.638;7.528;2023-04-02T09:44:25;101551.72;;;5.27;95.43
55010;BME280;40903;51.638;7.528;2023-04-02T09:46:55;101554.31;;;5.34;96.86
55010;BME280;40903;51.638;7.528;2023-04-02T09:49:24;101554.78;;;5.31;95.65
55010;BME280;40903;51.638;7.528;2023-04-02T09:52:04;101559.72;;;5.34;95.40
55010;BME280;40903;51.638;7.528;2023-04-02T09:54:30;101561.25;;;5.41;95.49
55010;BME280;40903;51.638;7.528;2023-04-02T09:56:59;101562.19;;;5.47;95.03
55010;BME280;40903;51.638;7.528;2023-04-02T09:59:25;101564.53;;;5.43;93.04
55010;BME280;40903;51.638;7.528;2023-04-02T10:04:40;101577.22;;;5.66;94.11
55010;BME280;40903;51.638;7.528;2023-04-02T10:07:09;101581.69;;;5.72;93.14
55010;BME280;40903;51.638;7.528;2023-04-02T10:10:01;101590.53;;;5.78;91.94
55010;BME280;40903;51.638;7.528;2023-04-02T10:12:28;101590.50;;;5.90;93.55
55010;BME280;40903;51.638;7.528;2023-04-02T10:14:54;101599.91;;;5.99;93.24
55010;BME280;40903;51.638;7.528;2023-04-02T10:17:26;101605.53;;;6.09;92.97
55010;BME280;40903;51.638;7.528;2023-04-02T10:19:53;101608.94;;;6.16;89.79
55010;BME280;40903;51.638;7.528;2023-04-02T10:22:20;101617.09;;;6.04;86.82
55010;BME280;40903;51.638;7.528;2023-04-02T10:24:46;101618.81;;;6.10;86.84
55010;BME280;40903;51.638;7.528;2023-04-02T10:27:28;101620.34;;;6.18;86.52
55010;BME280;40903;51.638;7.528;2023-04-02T10:47:41;101660.16;;;6.45;86.44
55010;BME280;40903;51.638;7.528;2023-04-02T10:55:34;101663.38;;;6.42;82.88
55010;BME280;40903;51.638;7.528;2023-04-02T10:58:06;101660.44;;;6.44;83.45
55010;BME280;40903;51.638;7.528;2023-04-02T11:00:33;101669.94;;;6.58;85.94
55010;BME280;40903;51.638;7.528;2023-04-02T11:05:33;101675.34;;;6.58;81.10
55010;BME280;40903;51.638;7.528;2023-04-02T11:10:36;101677.25;;;6.85;85.95
55010;BME280;40903;51.638;7.528;2023-04-02T11:13:12;101682.16;;;6.88;83.94
55010;BME280;40903;51.638;7.528;2023-04-02T11:15:39;101690.00;;;7.01;83.02
55010;BME280;40903;51.638;7.528;2023-04-02T11:18:05;101678.59;;;6.99;80.99
55010;BME280;40903;51.638;7.528;2023-04-02T11:23:26;101690.16;;;6.95;79.82
55010;BME280;40903;51.638;7.528;2023-04-02T11:28:37;101699.84;;;6.91;80.74
55010;BME280;40903;51.638;7.528;2023-04-02T11:31:03;101715.19;;;6.85;76.93
55010;BME280;40903;51.638;7.528;2023-04-02T11:33:39;101713.91;;;6.88;78.82
55010;BME280;40903;51.638;7.528;2023-04-02T11:36:56;101722.81;;;7.00;79.90
55010;BME280;40903;51.638;7.528;2023-04-02T11:38:51;101720.84;;;7.12;78.75
55010;BME280;40903;51.638;7.528;2023-04-02T11:44:01;101731.81;;;7.17;75.17
55010;BME280;40903;51.638;7.528;2023-04-02T11:46:34;101730.88;;;7.11;77.31
55010;BME280;40903;51.638;7.528;2023-04-02T11:51:46;101755.16;;;7.18;79.03
55010;BME280;40903;51.638;7.528;2023-04-02T11:54:20;101755.03;;;7.13;76.54
55010;BME280;40903;51.638;7.528;2023-04-02T11:56:52;101750.09;;;7.10;76.37
55010;BME280;40903;51.638;7.528;2023-04-02T11:59:22;101760.16;;;7.26;78.92
55010;BME280;40903;51.638;7.528;2023-04-02T12:01:58;101762.22;;;7.19;75.08
55010;BME280;40903;51.638;7.528;2023-04-02T12:07:12;101768.44;;;7.31;72.82
55010;BME280;40903;51.638;7.528;2023-04-02T12:09:48;101760.56;;;7.46;77.71
55010;BME280;40903;51.638;7.528;2023-04-02T12:12:36;101756.47;;;7.76;77.62
55010;BME280;40903;51.638;7.528;2023-04-02T12:15:28;101773.00;;;7.91;72.59
55010;BME280;40903;51.638;7.528;2023-04-02T12:17:46;101770.94;;;8.14;74.06
55010;BME280;40903;51.638;7.528;2023-04-02T12:20:18;101764.16;;;8.33;72.87
55010;BME280;40903;51.638;7.528;2023-04-02T12:22:53;101772.69;;;8.58;75.25
55010;BME280;40903;51.638;7.528;2023-04-02T12:27:44;101781.03;;;8.73;68.48
55010;BME280;40903;51.638;7.528;2023-04-02T12:30:16;101778.19;;;8.63;68.03
55010;BME280;40903;51.638;7.528;2023-04-02T12:32:42;101781.41;;;8.60;68.14
55010;BME280;40903;51.638;7.528;2023-04-02T12:35:24;101783.41;;;8.48;67.97
55010;BME280;40903;51.638;7.528;2023-04-02T12:37:51;101782.59;;;8.48;68.53
55010;BME280;40903;51.638;7.528;2023-04-02T12:40:17;101779.66;;;8.49;68.88
55010;BME280;40903;51.638;7.528;2023-04-02T12:42:43;101789.06;;;8.42;69.05
55010;BME280;40903;51.638;7.528;2023-04-02T12:48:08;101788.72;;;8.05;67.08
55010;BME280;40903;51.638;7.528;2023-04-02T12:50:35;101790.44;;;7.95;68.41
55010;BME280;40903;51.638;7.528;2023-04-02T12:53:00;101796.44;;;7.80;67.54
55010;BME280;40903;51.638;7.528;2023-04-02T12:55:25;101793.50;;;7.82;69.36
55010;BME280;40903;51.638;7.528;2023-04-02T12:57:55;101799.25;;;7.85;68.38
55010;BME280;40903;51.638;7.528;2023-04-02T13:02:47;101799.78;;;8.32;66.56
55010;BME280;40903;51.638;7.528;2023-04-02T13:05:13;101795.16;;;8.92;64.97
55010;BME280;40903;51.638;7.528;2023-04-02T13:07:55;101798.56;;;9.52;63.89
55010;BME280;40903;51.638;7.528;2023-04-02T13:10:22;101802.19;;;9.88;62.72
55010;BME280;40903;51.638;7.528;2023-04-02T13:12:52;101803.75;;;10.06;61.87
55010;BME280;40903;51.638;7.528;2023-04-02T13:15:20;101803.59;;;10.22;63.74
55010;BME280;40903;51.638;7.528;2023-04-02T13:17:47;101826.88;;;9.77;58.73
55010;BME280;40903;51.638;7.528;2023-04-02T13:20:29;101825.78;;;9.78;59.95
55010;BME280;40903;51.638;7.528;2023-04-02T13:22:55;101817.94;;;10.13;61.06
55010;BME280;40903;51.638;7.528;2023-04-02T13:25:23;101822.53;;;10.44;61.46
55010;BME280;40903;51.638;7.528;2023-04-02T13:27:48;101810.63;;;10.55;59.89
55010;BME280;40903;51.638;7.528;2023-04-02T13:30:17;101818.78;;;10.50;57.92
55010;BME280;40903;51.638;7.528;2023-04-02T13:32:45;101816.66;;;10.20;57.30
55010;BME280;40903;51.638;7.528;2023-04-02T13:35:11;101815.84;;;10.20;58.72
55010;BME280;40903;51.638;7.528;2023-04-02T13:37:36;101824.25;;;10.13;59.68
55010;BME280;40903;51.638;7.528;2023-04-02T13:40:01;101817.53;;;9.99;60.06
55010;BME280;40903;51.638;7.528;2023-04-02T13:42:27;101823.34;;;10.03;59.51
55010;BME280;40903;51.638;7.528;2023-04-02T13:44:52;101827.00;;;9.92;59.27
55010;BME280;40903;51.638;7.528;2023-04-02T13:47:18;101834.66;;;9.95;59.93
55010;BME280;40903;51.638;7.528;2023-04-02T13:49:43;101825.06;;;9.87;58.97
55010;BME280;40903;51.638;7.528;2023-04-02T13:52:09;101833.84;;;9.68;60.17
55010;BME280;40903;51.638;7.528;2023-04-02T13:57:13;101824.53;;;9.59;62.30
55010;BME280;40903;51.638;7.528;2023-04-02T13:59:38;101830.69;;;9.50;60.45
55010;BME280;40903;51.638;7.528;2023-04-02T14:02:11;101829.81;;;9.70;60.69
55010;BME280;40903;51.638;7.528;2023-04-02T14:04:38;101834.25;;;10.03;59.02
55010;BME280;40903;51.638;7.528;2023-04-02T14:09:34;101834.44;;;10.28;57.31
55010;BME280;40903;51.638;7.528;2023-04-02T14:12:10;101843.66;;;10.22;56.72
55010;BME280;40903;51.638;7.528;2023-04-02T14:14:45;101842.25;;;10.19;58.16
55010;BME280;40903;51.638;7.528;2023-04-02T14:22:51;101859.47;;;10.56;55.38
55010;BME280;40903;51.638;7.528;2023-04-02T14:30:25;101858.19;;;10.74;57.31
55010;BME280;40903;51.638;7.528;2023-04-02T14:32:55;101864.53;;;10.43;57.23
55010;BME280;40903;51.638;7.528;2023-04-02T14:35:32;101864.53;;;10.43;58.66
55010;BME280;40903;51.638;7.528;2023-04-02T14:38:08;101877.56;;;10.04;58.30
55010;BME280;40903;51.638;7.528;2023-04-02T14:40:43;101878.66;;;9.82;59.74
55010;BME280;40903;51.638;7.528;2023-04-02T14:43:23;101886.06;;;9.60;57.75
55010;BME280;40903;51.638;7.528;2023-04-02T14:45:56;101878.97;;;9.59;57.58
55010;BME280;40903;51.638;7.528;2023-04-02T14:51:01;101883.41;;;9.65;60.00
55010;BME280;40903;51.638;7.528;2023-04-02T14:53:33;101887.97;;;9.60;58.68
55010;BME280;40903;51.638;7.528;2023-04-02T14:56:04;101890.78;;;9.43;57.68
55010;BME280;40903;51.638;7.528;2023-04-02T14:58:32;101896.13;;;9.38;59.58
55010;BME280;40903;51.638;7.528;2023-04-02T15:03:24;101893.19;;;9.18;59.13
55010;BME280;40903;51.638;7.528;2023-04-02T15:05:53;101899.63;;;9.12;59.37
55010;BME280;40903;51.638;7.528;2023-04-02T15:08:23;101896.81;;;9.07;60.11
55010;BME280;40903;51.638;7.528;2023-04-02T15:10:55;101895.75;;;9.30;61.45
55010;BME280;40903;51.638;7.528;2023-04-02T15:16:07;101905.09;;;9.81;61.44
55010;BME280;40903;51.638;7.528;2023-04-02T15:18:35;101907.47;;;9.73;58.79
55010;BME280;40903;51.638;7.528;2023-04-02T15:23:41;101918.00;;;9.43;56.69
55010;BME280;40903;51.638;7.528;2023-04-02T15:28:59;101920.22;;;9.25;59.63
55010;BME280;40903;51.638;7.528;2023-04-02T15:31:27;101925.13;;;9.06;59.23
55010;BME280;40903;51.638;7.528;2023-04-02T15:36:40;101921.84;;;9.26;60.87
55010;BME280;40903;51.638;7.528;2023-04-02T15:39:25;101922.31;;;9.39;59.54
55010;BME280;40903;51.638;7.528;2023-04-02T15:42:00;101928.94;;;9.48;58.99
55010;BME280;40903;51.638;7.528;2023-04-02T15:44:28;101935.34;;;9.59;61.30
55010;BME280;40903;51.638;7.528;2023-04-02T15:46:56;101945.41;;;9.37;58.67
55010;BME280;40903;51.638;7.528;2023-04-02T15:49:39;101944.47;;;9.26;61.52
55010;BME280;40903;51.638;7.528;2023-04-02T15:52:21;101947.03;;;9.16;60.48
55010;BME280;40903;51.638;7.528;2023-04-02T15:59:44;101960.03;;;8.93;59.94